Artesia, New Mexico
Current Conditions -  °F | °C
As of 10:51 PM on Friday 24 Oct 2014 (Local Time) from KROW Reporting Station
Clear Clear  
Wind Chill: 61°   Ceiling: Unl
Heat Index: 61°   Visibility: 10mi
Dew Point: 55°   Wind: 6mph
Humidity: 81%   Direction: 260°W
Pressure: 30.18"   Gusts: NA
Location:  32.84°N, 104.39°W
Report Text: KROW 250451Z 26005KT 10SM CLR 16/13 A3018 RMK AO2 SLP172 T01610128
Loading
Personal Weather Stations






























Interactive Weather Map
Tropical Storm Tracking
New forecast layout! Learn more

10-Day Weather Forecast

Advertisements
Track Severe Weather on mobile